Terminal Aerodrome Forecast
Issued by NWS Charleston, WV

Home | Current Version | Previous Version | Text Only | Print | Product List | Glossary On
Versions: 1 2 3 4 5 6 7 8 9 10 11 12 13 14 15 16 17 18 19 20 21 22 23 24 25 26 27
359
FTUS41 KRLX 211735
TAFBKW
TAF
KBKW 211735Z 2118/2218 18007KT P6SM SCT025 OVC200
     FM212200 14008KT P6SM BKN025 OVC200
     FM220700 14005KT P6SM OVC008
     FM221600 14009KT 5SM -RA OVC008=

USA.gov is the U.S. government's official web portal to all federal, state and local government web resources and services.